createdAt,value
2023-04-07T00:01:39.569Z,7.50
2023-04-07T00:04:08.501Z,7.23
2023-04-07T00:06:37.562Z,8.13
2023-04-07T00:09:06.270Z,7.20
2023-04-07T00:11:34.984Z,7.53
2023-04-07T00:14:06.096Z,7.50
2023-04-07T00:16:34.876Z,7.13
2023-04-07T00:19:03.448Z,7.23
2023-04-07T00:21:32.144Z,7.47
2023-04-07T00:24:00.877Z,7.40
2023-04-07T00:26:32.604Z,8.03
2023-04-07T00:29:04.574Z,7.37
2023-04-07T00:31:33.549Z,7.30
2023-04-07T00:34:03.168Z,7.60
2023-04-07T00:36:32.264Z,6.77
2023-04-07T00:39:01.209Z,7.50
2023-04-07T00:44:35.035Z,7.23
2023-04-07T00:47:04.015Z,7.90
2023-04-07T00:49:32.810Z,7.93
2023-04-07T00:52:02.667Z,7.97
2023-04-07T00:54:32.313Z,6.87
2023-04-07T00:57:03.863Z,7.43
2023-04-07T00:59:34.750Z,7.67
2023-04-07T01:02:08.784Z,7.00
2023-04-07T01:04:45.115Z,6.77
2023-04-07T01:07:24.769Z,7.30
2023-04-07T01:10:06.795Z,7.43
2023-04-07T01:12:54.273Z,7.23
2023-04-07T01:15:31.327Z,7.90
2023-04-07T01:18:10.332Z,7.40
2023-04-07T01:20:42.494Z,7.87
2023-04-07T01:23:22.964Z,8.40
2023-04-07T01:26:16.913Z,8.30
2023-04-07T01:29:13.288Z,7.20
2023-04-07T01:31:43.953Z,7.83
2023-04-07T01:34:14.553Z,6.90
2023-04-07T01:36:59.291Z,8.30
2023-04-07T01:39:29.756Z,6.73
2023-04-07T01:42:02.458Z,7.03
2023-04-07T01:44:34.371Z,7.37
2023-04-07T01:47:05.319Z,7.70
2023-04-07T01:49:35.035Z,7.47
2023-04-07T01:52:04.829Z,6.90
2023-04-07T01:54:34.393Z,6.83
2023-04-07T01:57:03.802Z,7.60
2023-04-07T01:59:32.648Z,7.17
2023-04-07T02:02:04.602Z,5.77
2023-04-07T02:04:39.446Z,4.80
2023-04-07T02:07:15.581Z,6.83
2023-04-07T02:09:50.588Z,6.40
2023-04-07T02:12:19.893Z,7.00
2023-04-07T02:15:14.166Z,7.80
2023-04-07T02:17:53.851Z,6.60
2023-04-07T02:20:23.455Z,7.20
2023-04-07T02:22:56.096Z,6.67
2023-04-07T02:25:27.633Z,6.50
2023-04-07T02:27:58.071Z,6.70
2023-04-07T02:30:27.439Z,7.50
2023-04-07T02:32:58.116Z,7.60
2023-04-07T02:35:27.656Z,7.67
2023-04-07T02:37:55.882Z,6.97
2023-04-07T02:40:25.461Z,7.47
2023-04-07T02:42:55.297Z,6.53
2023-04-07T02:45:24.871Z,6.93
2023-04-07T02:47:54.467Z,8.53
2023-04-07T02:50:26.375Z,6.77
2023-04-07T02:52:58.429Z,5.80
2023-04-07T02:55:29.041Z,4.27
2023-04-07T02:57:57.725Z,7.70
2023-04-07T03:00:37.030Z,7.17
2023-04-07T03:03:17.185Z,6.80
2023-04-07T03:05:59.003Z,7.37
2023-04-07T03:08:28.255Z,7.73
2023-04-07T03:10:58.648Z,7.03
2023-04-07T03:13:32.311Z,7.30
2023-04-07T03:16:01.704Z,7.53
2023-04-07T03:18:35.190Z,7.53
2023-04-07T03:21:07.578Z,7.93
2023-04-07T03:23:39.244Z,6.63
2023-04-07T03:26:09.119Z,7.10
2023-04-07T03:28:39.892Z,8.37
2023-04-07T03:31:08.955Z,8.33
2023-04-07T03:33:37.347Z,8.30
2023-04-07T03:36:09.956Z,9.07
2023-04-07T03:38:38.891Z,7.80
2023-04-07T03:41:09.230Z,7.20
2023-04-07T03:43:40.682Z,7.63
2023-04-07T03:46:09.955Z,7.53
2023-04-07T03:48:38.791Z,8.03
2023-04-07T03:51:15.247Z,7.40
2023-04-07T03:53:45.110Z,8.03
2023-04-07T03:56:28.870Z,8.90
2023-04-07T03:59:00.149Z,7.17
2023-04-07T04:01:33.499Z,7.63
2023-04-07T04:04:09.984Z,7.87
2023-04-07T04:06:41.021Z,7.13
2023-04-07T04:09:30.192Z,8.30
2023-04-07T04:11:58.534Z,6.40
2023-04-07T04:14:27.777Z,6.40
2023-04-07T04:17:00.660Z,6.97
2023-04-07T04:19:34.129Z,7.70
2023-04-07T04:22:09.052Z,7.23
2023-04-07T04:24:44.465Z,7.97
2023-04-07T04:27:13.579Z,7.00
2023-04-07T04:29:43.337Z,6.87
2023-04-07T04:32:14.265Z,7.67
2023-04-07T04:34:45.865Z,5.50
2023-04-07T04:37:16.765Z,6.10
2023-04-07T04:39:48.398Z,6.63
2023-04-07T04:42:21.662Z,7.00
2023-04-07T04:44:50.634Z,7.10
2023-04-07T04:47:20.822Z,8.27
2023-04-07T04:49:49.097Z,6.60
2023-04-07T04:52:21.788Z,6.40
2023-04-07T04:54:51.770Z,7.33
2023-04-07T04:57:21.274Z,5.93
2023-04-07T04:59:49.799Z,6.20
2023-04-07T05:02:20.470Z,6.33
2023-04-07T05:04:49.683Z,6.10
2023-04-07T05:07:32.237Z,5.50
2023-04-07T05:10:02.543Z,5.83
2023-04-07T05:12:35.074Z,5.20
2023-04-07T05:15:25.043Z,5.90
2023-04-07T05:19:12.250Z,5.47
2023-04-07T05:21:41.352Z,6.40
2023-04-07T05:24:10.973Z,6.33
2023-04-07T05:26:39.707Z,5.63
2023-04-07T05:29:07.819Z,6.73
2023-04-07T05:31:37.442Z,6.37
2023-04-07T05:34:10.401Z,5.00
2023-04-07T05:39:52.863Z,5.67
2023-04-07T05:42:22.247Z,5.70
2023-04-07T05:44:53.426Z,5.70
2023-04-07T05:48:15.199Z,4.17
2023-04-07T05:50:46.955Z,5.23
2023-04-07T05:53:18.726Z,5.30
2023-04-07T05:55:49.341Z,5.10
2023-04-07T05:58:28.074Z,6.00
2023-04-07T06:01:00.393Z,6.30
2023-04-07T06:03:28.734Z,5.50
2023-04-07T06:06:18.729Z,5.50
2023-04-07T06:08:51.045Z,5.13
2023-04-07T06:11:21.477Z,5.47
2023-04-07T06:13:50.373Z,4.90
2023-04-07T06:16:19.805Z,5.00
2023-04-07T06:18:50.279Z,5.03
2023-04-07T06:21:19.006Z,5.17
2023-04-07T06:23:47.767Z,5.53
2023-04-07T06:26:16.688Z,5.67
2023-04-07T06:28:47.099Z,5.90
2023-04-07T06:31:18.913Z,5.10
2023-04-07T06:33:50.753Z,5.57
2023-04-07T06:36:23.994Z,6.00
2023-04-07T06:38:55.576Z,5.03
2023-04-07T06:41:24.362Z,5.57
2023-04-07T06:43:54.273Z,5.60
2023-04-07T06:46:22.906Z,5.20
2023-04-07T06:48:52.067Z,5.10
2023-04-07T06:51:21.472Z,5.17
2023-04-07T06:53:51.391Z,5.20
2023-04-07T06:56:20.183Z,5.63
2023-04-07T06:58:48.661Z,5.40
2023-04-07T07:01:18.952Z,5.00
2023-04-07T07:03:48.532Z,5.07
2023-04-07T07:06:19.024Z,5.10
2023-04-07T07:08:47.897Z,4.90
2023-04-07T07:11:17.331Z,4.90
2023-04-07T07:13:48.296Z,5.50
2023-04-07T07:16:18.620Z,5.17
2023-04-07T07:18:47.256Z,6.00
2023-04-07T07:21:16.238Z,5.20
2023-04-07T07:23:44.871Z,5.27
2023-04-07T07:26:13.545Z,5.17
2023-04-07T07:28:42.698Z,6.27
2023-04-07T07:31:15.916Z,5.57
2023-04-07T07:33:48.623Z,5.60
2023-04-07T07:36:18.753Z,5.33
2023-04-07T07:38:48.892Z,6.73
2023-04-07T07:41:17.006Z,5.73
2023-04-07T07:43:45.476Z,6.23
2023-04-07T07:46:14.193Z,5.50
2023-04-07T07:48:42.656Z,6.90
2023-04-07T07:51:13.270Z,5.90
2023-04-07T07:53:42.069Z,5.70
2023-04-07T07:56:10.554Z,5.70
2023-04-07T07:58:39.164Z,5.53
2023-04-07T08:01:07.817Z,5.60
2023-04-07T08:03:36.363Z,5.97
2023-04-07T08:06:06.432Z,6.23
2023-04-07T08:08:39.268Z,6.40
2023-04-07T08:11:08.303Z,5.50
2023-04-07T08:13:37.305Z,5.80
2023-04-07T08:16:07.390Z,6.20
2023-04-07T08:18:35.852Z,6.23
2023-04-07T08:21:05.912Z,5.53
2023-04-07T08:23:36.477Z,5.33
2023-04-07T08:26:06.426Z,5.47
2023-04-07T08:28:34.879Z,4.87
2023-04-07T08:31:03.369Z,4.77
2023-04-07T08:33:33.238Z,5.20
2023-04-07T08:36:04.263Z,4.93
2023-04-07T08:38:32.980Z,4.67
2023-04-07T08:41:09.751Z,4.67
2023-04-07T08:43:39.651Z,5.60
2023-04-07T08:46:11.400Z,4.60
2023-04-07T08:48:40.300Z,5.13
2023-04-07T08:51:10.518Z,6.23
2023-04-07T08:53:45.080Z,5.30
2023-04-07T08:56:17.183Z,5.60
2023-04-07T08:58:47.230Z,4.90
2023-04-07T09:01:17.197Z,5.30
2023-04-07T09:03:47.884Z,5.70
2023-04-07T09:06:17.007Z,4.93
2023-04-07T09:08:46.039Z,5.00
2023-04-07T09:11:15.609Z,4.27
2023-04-07T09:13:44.430Z,4.30
2023-04-07T09:16:15.913Z,4.23
2023-04-07T09:18:44.721Z,4.97
2023-04-07T09:21:15.206Z,4.70
2023-04-07T09:23:45.006Z,4.93
2023-04-07T09:26:27.180Z,5.20
2023-04-07T09:28:57.578Z,4.70
2023-04-07T09:31:45.091Z,4.70
2023-04-07T09:34:26.323Z,4.97
2023-04-07T09:36:55.066Z,4.90
2023-04-07T09:39:26.037Z,4.30
2023-04-07T09:41:57.111Z,4.83
2023-04-07T09:44:26.912Z,4.67
2023-04-07T09:47:00.486Z,4.70
2023-04-07T09:49:29.297Z,4.17
2023-04-07T09:52:02.731Z,4.80
2023-04-07T09:54:36.572Z,4.30
2023-04-07T09:57:09.036Z,4.03
2023-04-07T09:59:39.323Z,4.97
2023-04-07T10:02:08.909Z,4.53
2023-04-07T10:04:39.212Z,4.33
2023-04-07T10:07:08.279Z,4.27
2023-04-07T10:09:37.094Z,4.70
2023-04-07T10:12:08.539Z,5.00
2023-04-07T10:14:38.588Z,4.33
2023-04-07T10:17:09.784Z,4.00
2023-04-07T10:19:40.297Z,4.87
2023-04-07T10:22:09.056Z,4.37
2023-04-07T10:24:52.757Z,4.73
2023-04-07T10:27:28.972Z,4.57
2023-04-07T10:29:58.407Z,4.50
2023-04-07T10:32:26.991Z,4.40
2023-04-07T10:35:01.332Z,4.73
2023-04-07T10:37:29.947Z,4.67
2023-04-07T10:40:29.094Z,5.10
2023-04-07T10:42:59.632Z,5.27
2023-04-07T10:45:54.486Z,4.43
2023-04-07T10:48:23.606Z,4.97
2023-04-07T10:51:17.169Z,4.87
2023-04-07T10:54:22.438Z,5.30
2023-04-07T10:57:15.603Z,4.70
2023-04-07T11:00:18.460Z,4.73
2023-04-07T11:02:47.698Z,5.17
2023-04-07T11:05:23.647Z,4.97
2023-04-07T11:07:57.862Z,5.27
2023-04-07T11:10:26.841Z,4.97
2023-04-07T11:13:09.794Z,5.23
2023-04-07T11:15:41.046Z,5.20
2023-04-07T11:18:15.954Z,5.27
2023-04-07T11:20:46.916Z,5.17
2023-04-07T11:23:16.709Z,4.83
2023-04-07T11:25:48.563Z,5.53
2023-04-07T11:28:18.999Z,5.40
2023-04-07T11:30:52.085Z,4.90
2023-04-07T11:33:22.571Z,5.70
2023-04-07T11:35:57.646Z,5.33
2023-04-07T11:38:27.644Z,4.80
2023-04-07T11:40:56.924Z,4.57
2023-04-07T11:43:31.185Z,4.67
2023-04-07T11:46:15.392Z,4.17
2023-04-07T11:48:46.033Z,4.13
2023-04-07T11:51:20.367Z,3.60
2023-04-07T11:53:50.128Z,4.20
2023-04-07T11:56:19.070Z,5.50
2023-04-07T11:58:51.444Z,4.23
2023-04-07T12:01:22.381Z,4.83
2023-04-07T12:03:59.675Z,4.60
2023-04-07T12:06:32.758Z,4.30
2023-04-07T12:09:02.021Z,4.97
2023-04-07T12:11:32.131Z,4.30
2023-04-07T12:14:00.929Z,4.63
2023-04-07T12:16:30.976Z,4.00
2023-04-07T12:18:59.190Z,4.70
2023-04-07T12:21:30.468Z,3.93
2023-04-07T12:23:58.866Z,4.63
2023-04-07T12:26:30.161Z,4.33
2023-04-07T12:29:05.352Z,4.07
2023-04-07T12:31:37.824Z,4.07
2023-04-07T12:34:08.369Z,4.17
2023-04-07T12:36:36.989Z,3.30
2023-04-07T12:39:07.324Z,3.30
2023-04-07T12:41:38.840Z,3.97
2023-04-07T12:44:07.354Z,3.10
2023-04-07T12:46:37.458Z,3.40
2023-04-07T12:49:05.817Z,2.37
2023-04-07T12:51:34.641Z,2.80
2023-04-07T12:54:03.849Z,2.07
2023-04-07T12:56:33.850Z,2.03
2023-04-07T12:59:03.052Z,2.20
2023-04-07T13:01:31.402Z,2.83
2023-04-07T13:04:02.287Z,2.20
2023-04-07T13:06:30.966Z,2.03
2023-04-07T13:08:59.136Z,1.93
2023-04-07T13:11:27.979Z,2.00
2023-04-07T13:13:58.552Z,2.20
2023-04-07T13:16:28.676Z,2.37
2023-04-07T13:18:57.434Z,2.13
2023-04-07T13:21:45.294Z,1.90
2023-04-07T13:24:15.081Z,2.07
2023-04-07T13:26:43.618Z,1.97
2023-04-07T13:29:12.490Z,2.00
2023-04-07T13:31:41.388Z,2.30
2023-04-07T13:34:11.295Z,1.70
2023-04-07T13:36:41.352Z,2.30
2023-04-07T13:39:09.598Z,2.07
2023-04-07T13:41:38.392Z,3.40
2023-04-07T13:44:06.996Z,2.60
2023-04-07T13:46:37.056Z,2.23
2023-04-07T13:49:06.861Z,2.50
2023-04-07T13:51:35.657Z,2.53
2023-04-07T13:54:06.011Z,3.07
2023-04-07T13:56:35.564Z,2.60
2023-04-07T13:59:04.002Z,2.50
2023-04-07T14:01:33.887Z,3.20
2023-04-07T14:04:06.252Z,3.00
2023-04-07T14:06:37.188Z,2.60
2023-04-07T14:09:08.789Z,2.83
2023-04-07T14:11:41.673Z,2.60
2023-04-07T14:14:12.872Z,3.30
2023-04-07T14:16:41.627Z,2.60
2023-04-07T14:19:10.645Z,2.73
2023-04-07T14:21:39.544Z,3.07
2023-04-07T14:24:09.807Z,2.50
2023-04-07T14:26:37.931Z,2.77
2023-04-07T14:29:06.098Z,2.50
2023-04-07T14:31:35.894Z,2.27
2023-04-07T14:34:04.234Z,2.60
2023-04-07T14:36:33.493Z,2.20
2023-04-07T14:39:03.884Z,2.80
2023-04-07T14:41:33.521Z,2.07
2023-04-07T14:44:03.186Z,2.30
2023-04-07T14:46:31.725Z,2.13
2023-04-07T14:49:00.265Z,2.07
2023-04-07T14:51:28.843Z,2.17
2023-04-07T14:53:57.943Z,1.73
2023-04-07T14:56:27.493Z,2.10
2023-04-07T14:58:58.410Z,2.23
2023-04-07T15:02:01.414Z,2.27
2023-04-07T15:04:30.011Z,2.40
2023-04-07T15:06:58.516Z,2.10
2023-04-07T15:09:34.557Z,2.10
2023-04-07T15:12:06.840Z,2.30
2023-04-07T15:14:38.573Z,1.60
2023-04-07T15:17:08.271Z,2.10
2023-04-07T15:19:40.306Z,2.17
2023-04-07T15:22:12.172Z,2.60
2023-04-07T15:24:40.850Z,1.80
2023-04-07T15:27:14.018Z,2.30
2023-04-07T15:29:46.174Z,1.80
2023-04-07T15:32:16.596Z,1.63
2023-04-07T15:34:54.713Z,1.43
2023-04-07T15:38:29.032Z,1.70
2023-04-07T15:41:12.986Z,2.00
2023-04-07T15:43:47.121Z,1.33
2023-04-07T15:46:23.959Z,1.50
2023-04-07T15:48:57.551Z,1.70
2023-04-07T15:51:41.497Z,1.60
2023-04-07T15:54:13.269Z,1.80
2023-04-07T15:56:42.577Z,1.70
2023-04-07T15:59:15.867Z,2.17
2023-04-07T16:01:46.521Z,1.83
2023-04-07T16:04:16.781Z,1.90
2023-04-07T16:09:43.832Z,1.60
2023-04-07T16:12:13.340Z,1.70
2023-04-07T16:14:42.153Z,1.63
2023-04-07T16:17:13.753Z,1.77
2023-04-07T16:19:42.671Z,1.87
2023-04-07T16:22:11.045Z,2.03
2023-04-07T16:24:39.806Z,2.27
2023-04-07T16:27:10.199Z,2.57
2023-04-07T16:29:39.155Z,2.30
2023-04-07T16:32:08.691Z,2.50
2023-04-07T16:34:38.441Z,2.63
2023-04-07T16:37:07.415Z,2.30
2023-04-07T16:39:36.090Z,2.60
2023-04-07T16:42:04.860Z,2.60
2023-04-07T16:44:35.124Z,2.40
2023-04-07T16:47:05.262Z,2.50
2023-04-07T16:49:36.071Z,2.30
2023-04-07T16:52:08.574Z,2.10
2023-04-07T16:54:37.782Z,2.50
2023-04-07T16:57:06.187Z,2.87
2023-04-07T16:59:36.430Z,2.30
2023-04-07T17:02:11.856Z,2.40
2023-04-07T17:04:41.203Z,2.53
2023-04-07T17:07:14.317Z,2.50
2023-04-07T17:09:46.062Z,2.63
2023-04-07T17:12:15.577Z,2.40
2023-04-07T17:14:45.201Z,2.60
2023-04-07T17:17:14.005Z,2.83
2023-04-07T17:19:45.444Z,2.10
2023-04-07T17:22:16.606Z,2.20
2023-04-07T17:24:46.208Z,2.07
2023-04-07T17:27:15.420Z,2.27
2023-04-07T17:29:43.674Z,2.37
2023-04-07T17:32:11.892Z,2.00
2023-04-07T17:34:40.228Z,2.43
2023-04-07T17:37:10.147Z,2.47
2023-04-07T17:39:40.935Z,2.20
2023-04-07T17:42:11.232Z,2.30
2023-04-07T17:44:39.699Z,2.20
2023-04-07T17:47:09.830Z,2.33
2023-04-07T17:49:40.548Z,2.17
2023-04-07T17:52:09.199Z,2.00
2023-04-07T17:54:37.777Z,2.40
2023-04-07T17:57:08.827Z,2.30
2023-04-07T17:59:37.017Z,2.30
2023-04-07T18:02:09.282Z,2.87
2023-04-07T18:04:39.932Z,2.80
2023-04-07T18:07:12.910Z,2.60
2023-04-07T18:09:42.994Z,2.83
2023-04-07T18:12:13.431Z,2.30
2023-04-07T18:14:42.460Z,2.20
2023-04-07T18:17:19.345Z,1.93
2023-04-07T18:19:52.018Z,2.80
2023-04-07T18:22:21.589Z,2.33
2023-04-07T18:24:51.304Z,2.30
2023-04-07T18:27:23.978Z,2.43
2023-04-07T18:29:52.464Z,3.03
2023-04-07T18:32:24.201Z,2.87
2023-04-07T18:34:53.612Z,3.10
2023-04-07T18:37:22.575Z,3.40
2023-04-07T18:39:52.147Z,2.57
2023-04-07T18:42:21.977Z,2.87
2023-04-07T18:44:50.645Z,2.40
2023-04-07T18:47:20.182Z,2.70
2023-04-07T18:49:49.529Z,2.87
2023-04-07T18:52:18.020Z,2.50
2023-04-07T18:54:46.313Z,2.80
2023-04-07T18:57:15.188Z,2.60
2023-04-07T18:59:47.243Z,3.30
2023-04-07T19:02:16.204Z,3.10
2023-04-07T19:04:46.084Z,3.00
2023-04-07T19:07:15.175Z,3.33
2023-04-07T19:09:44.116Z,2.83
2023-04-07T19:12:12.671Z,3.13
2023-04-07T19:14:42.673Z,2.90
2023-04-07T19:17:17.036Z,3.10
2023-04-07T19:19:46.047Z,3.20
2023-04-07T19:22:16.615Z,2.93
2023-04-07T19:24:45.479Z,3.37
2023-04-07T19:27:15.723Z,3.23
2023-04-07T19:29:48.616Z,3.00
2023-04-07T19:32:21.562Z,2.67
2023-04-07T19:34:51.900Z,3.20
2023-04-07T19:37:20.742Z,3.57
2023-04-07T19:40:01.736Z,3.27
2023-04-07T19:42:34.380Z,3.17
2023-04-07T19:45:05.280Z,3.00
2023-04-07T19:47:37.105Z,3.50
2023-04-07T19:50:08.572Z,3.50
2023-04-07T19:52:39.680Z,3.23
2023-04-07T19:55:12.607Z,2.40
2023-04-07T19:57:41.541Z,3.20
2023-04-07T20:00:14.438Z,2.60
2023-04-07T20:02:55.636Z,2.40
2023-04-07T20:05:24.953Z,3.57
2023-04-07T20:07:54.671Z,3.37
2023-04-07T20:10:25.020Z,3.43
2023-04-07T20:12:55.616Z,3.43
2023-04-07T20:15:26.955Z,3.77
2023-04-07T20:17:59.376Z,3.73
2023-04-07T20:20:28.782Z,3.80
2023-04-07T20:22:58.009Z,3.07
2023-04-07T20:25:32.423Z,3.80
2023-04-07T20:28:02.621Z,3.10
2023-04-07T20:30:31.275Z,3.50
2023-04-07T20:33:03.489Z,3.00
2023-04-07T20:35:32.661Z,2.80
2023-04-07T20:38:05.101Z,3.70
2023-04-07T20:40:37.257Z,3.60
2023-04-07T20:43:06.133Z,4.13
2023-04-07T20:45:36.033Z,5.57
2023-04-07T20:48:07.207Z,4.70
2023-04-07T20:50:35.996Z,6.10
2023-04-07T20:53:07.074Z,4.90
2023-04-07T20:55:39.225Z,5.40
2023-04-07T20:58:09.642Z,4.63
2023-04-07T21:00:38.277Z,5.10
2023-04-07T21:03:09.717Z,5.50
2023-04-07T21:05:38.860Z,4.70
2023-04-07T21:08:07.628Z,6.00
2023-04-07T21:10:37.006Z,5.20
2023-04-07T21:13:05.704Z,5.77
2023-04-07T21:15:35.431Z,5.77
2023-04-07T21:18:04.446Z,5.67
2023-04-07T21:20:34.369Z,5.20
2023-04-07T21:23:03.171Z,5.20
2023-04-07T21:25:31.298Z,4.90
2023-04-07T21:28:00.253Z,4.70
2023-04-07T21:30:28.563Z,5.07
2023-04-07T21:32:57.429Z,5.47
2023-04-07T21:35:28.493Z,5.03
2023-04-07T21:38:01.040Z,5.87
2023-04-07T21:40:29.194Z,5.63
2023-04-07T21:42:58.851Z,6.17
2023-04-07T21:45:27.103Z,5.87
2023-04-07T21:47:56.708Z,6.27
2023-04-07T21:50:25.439Z,7.00
2023-04-07T21:52:54.682Z,6.63
2023-04-07T21:55:24.586Z,6.00
2023-04-07T21:57:54.012Z,5.73
2023-04-07T22:00:25.165Z,6.20
2023-04-07T22:02:57.908Z,6.00
2023-04-07T22:05:26.523Z,6.70
2023-04-07T22:07:55.091Z,5.27
2023-04-07T22:10:26.951Z,5.97
2023-04-07T22:12:55.273Z,5.53
2023-04-07T22:15:24.094Z,5.17
2023-04-07T22:17:53.850Z,5.20
2023-04-07T22:20:22.264Z,4.40
2023-04-07T22:22:54.126Z,5.30
2023-04-07T22:25:25.472Z,4.77
2023-04-07T22:27:56.966Z,5.23
2023-04-07T22:30:27.319Z,4.60
2023-04-07T22:32:56.020Z,5.33
2023-04-07T22:35:24.814Z,5.37
2023-04-07T22:37:53.466Z,5.53
2023-04-07T22:40:21.885Z,5.87
2023-04-07T22:42:52.130Z,6.87
2023-04-07T22:45:20.758Z,6.10
2023-04-07T22:47:49.430Z,5.90
2023-04-07T22:50:18.044Z,5.67
2023-04-07T22:52:48.353Z,6.03
2023-04-07T22:55:16.740Z,5.73
2023-04-07T22:57:45.095Z,5.10
2023-04-07T23:00:15.641Z,5.60
2023-04-07T23:02:44.741Z,4.47
2023-04-07T23:05:12.923Z,4.97
2023-04-07T23:07:41.289Z,6.30
2023-04-07T23:10:10.644Z,4.80
2023-04-07T23:12:40.243Z,5.00
2023-04-07T23:15:09.127Z,4.73
2023-04-07T23:17:39.052Z,4.10
2023-04-07T23:20:09.175Z,3.80
2023-04-07T23:22:38.158Z,3.83
2023-04-07T23:25:07.510Z,4.23
2023-04-07T23:27:36.143Z,4.23
2023-04-07T23:30:04.514Z,3.60
2023-04-07T23:32:34.030Z,4.90
2023-04-07T23:35:03.998Z,3.70
2023-04-07T23:37:32.569Z,4.07
2023-04-07T23:40:01.265Z,4.07
2023-04-07T23:42:29.737Z,3.10
2023-04-07T23:44:58.094Z,3.40
2023-04-07T23:47:27.070Z,4.33
2023-04-07T23:50:00.380Z,4.77
2023-04-07T23:52:31.540Z,4.90
2023-04-07T23:54:59.740Z,4.77
2023-04-07T23:57:29.322Z,4.50
2023-04-07T23:59:58.002Z,4.50
